Harriston, MS (39081)

3:24 PM CDT on July 06, 2015 (GMT -0500)
Meadville | | Change Station
CLOSE
Current Station
Personal Weather Station
Location: Meadville, MS
Elevation: 335 ft
Nearby Weather Stations
Active Advisory: Flood Warning Active Notice: Record Report, Public Information Statement

Elev 335 ft 31.59 °N, 90.90 °W | Updated 1 second ago

Clear
Clear
88.7 °F
Feels Like 100 °F
N
1.0
Wind Variable Wind from WSW
Gusts 6.0 mph

Today
High -- | Low -- °F
--% Chance of Precip.
Yesterday
High -- | Low -- °F
Precip. -- in
6:04 AM 8:13 PM
Waning Gibbous, 72% visible
Pressure 30.11 in
Visibility 10.0 miles
Clouds Clear
Heat Index 100 °F
Dew Point 76 °F
Humidity 66%
Rainfall 0.00 in
Snow Depth Not available.
UV 10 out of 12
Pollen 3.40 out of 12
Air Quality Not available.
Flu Activity Not available.
METAR KVKS 062015Z AUTO 23008KT 10SM CLR 32/24 A3011 RMK A01

More Conditions Fewer Conditions

Pressure 30.11 in
Visibility 10.0 miles
Clouds Clear
Heat Index 100 °F
Dew Point 76 °F
Humidity 66%
Rainfall 0.00 in
Snow Depth Not available.
UV 10 out of 12
Pollen 3.40 out of 12
Air Quality Not available.
Flu Activity Not available.
METAR KVKS 062015Z AUTO 23008KT 10SM CLR 32/24 A3011 RMK A01

More Conditions Fewer Conditions

10-Day Weather Forecast

×

Almanac

Astronomy

Jul. 06, 2015 Rise Set
Actual Time
Civil Twilight
Nautical Twilight
Astronomical Twilight
Moon
Length of Visible Light
Length of Day
Tomorrow will be .
, % of the Moon is Illuminated

Today's Extremes

State Highs State Lows

Community

WunderPhotos

Upload Photos

1,835,636 photos uploaded!

WunderBlogs® & News

Nearby

Air Quality

  Air Quality AQ Index Pollutant
Not available.

Snow Depth

Station Depth Elevation

Earthquake Activity

City Distance Mag. Time & Date
Minimum magnitude displayed is 2.5.

Coastal Water Temperatures

Place Temperature

Stations

Nearby Weather Stations

Station Location Temp. Windchill Dew Point Humidity Wind Precip. Elev Updated Type
                   
Flood Warning
Statement as of 11:48 AM CDT on July 06, 2015


The Flood Warning continues for
the Mississippi River at Vicksburg
* until further notice.
* At 11:00 am Monday the stage was 43.1 feet.
* Minor flooding is occurring and minor flooding is forecast.
* Flood stage is 43.0 feet.
* Forecast... the river will continue rising to near 44.0 feet by
Friday July 17.
* Impact... at 44.0 feet... Ford and Kings subdivision at Pittman Road
and mary's alley begins to flood.
* Impact... at 43.5 feet... Long Lake subdivision is completely flooded.
Vicksburg floodwall gates at train depot and the lumber yard gate 8
are closed.
* Impact... at 43.0 feet... Jackson Lane in north Vicksburg begins to
flood.



              Flood observed forecast 7 am crest
location stg stg day time Tue Wed Thu crest time date

Lower Mississippi River
Vicksburg 43 43.1 Mon 11 am 43.1 43.2 43.4 44.0 07 am 07/17




Lat... Lon 3193 9129 3227 9105 3277 9123 3278 9101
      3226 9086 3187 9114